Time;durP1;ratioP1;P1;durP2;ratioP2;P2;SDS_P1;SDS_P2;PMS_P1;PMS_P2;Temp;Humidity;BMP_temperature;BMP_pressure;BME280_temperature;BME280_humidity;BME280_pressure;Samples;Min_cycle;Max_cycle;Signal;HPM_P1;HPM_P2
2022/01/13 00:01:27;;;;;;;188.10;79.57;;;-0.90;99.90;;;;;;5053900;28;20021;-55
2022/01/13 00:03:53;;;;;;;185.65;81.13;;;-1.00;99.90;;;;;;5053932;28;20033;-55
2022/01/13 00:06:19;;;;;;;180.40;79.88;;;-1.00;99.90;;;;;;5054039;28;20044;-55
2022/01/13 00:08:45;;;;;;;177.38;78.78;;;-1.00;99.90;;;;;;5053881;28;20037;-55
2022/01/13 00:11:11;;;;;;;187.00;82.13;;;-1.00;99.90;;;;;;5053889;28;20040;-55
2022/01/13 00:13:57;;;;;;;178.73;80.05;;;-1.00;99.90;;;;;;5053888;28;20053;-55
2022/01/13 00:16:36;;;;;;;182.18;80.07;;;-1.00;99.90;;;;;;5053799;28;20041;-55
2022/01/13 00:19:20;;;;;;;185.15;79.10;;;-0.90;99.90;;;;;;5067375;28;20123;-55
2022/01/13 00:24:15;;;;;;;164.35;74.75;;;-1.00;99.90;;;;;;5077534;28;20070;-55
2022/01/13 00:26:42;;;;;;;179.65;78.80;;;-1.00;99.90;;;;;;5077574;28;20024;-55
2022/01/13 00:29:09;;;;;;;177.38;79.55;;;-0.90;99.90;;;;;;5077309;28;20032;-55
2022/01/13 00:31:39;;;;;;;181.85;81.82;;;-0.90;99.90;;;;;;5074748;28;20104;-55
2022/01/13 00:34:07;;;;;;;180.50;81.75;;;-0.90;99.90;;;;;;5057356;28;20029;-55
2022/01/13 00:36:36;;;;;;;178.45;81.63;;;-1.00;99.90;;;;;;5057128;28;20103;-54
2022/01/13 00:39:07;;;;;;;184.93;81.23;;;-1.00;99.90;;;;;;5057198;28;20021;-55
2022/01/13 00:41:33;;;;;;;184.48;83.00;;;-1.00;99.90;;;;;;5057084;28;20261;-54
2022/01/13 00:44:04;;;;;;;196.05;87.43;;;-1.10;99.90;;;;;;5057157;28;20081;-55
2022/01/13 00:46:41;;;;;;;193.63;83.43;;;-1.10;99.90;;;;;;5057157;28;20052;-55
2022/01/13 00:49:09;;;;;;;174.60;77.38;;;-1.20;99.90;;;;;;5057129;28;20029;-54
2022/01/13 00:51:35;;;;;;;184.38;81.00;;;-1.20;99.90;;;;;;5057058;28;20033;-55
2022/01/13 00:54:05;;;;;;;182.45;81.43;;;-1.30;99.90;;;;;;5056860;28;20045;-55
2022/01/13 00:56:34;;;;;;;183.87;82.80;;;-1.30;99.90;;;;;;5056975;28;20033;-55
2022/01/13 00:59:07;;;;;;;184.20;82.72;;;-1.20;99.90;;;;;;5056866;28;20035;-54
2022/01/13 01:01:35;;;;;;;178.70;82.93;;;-1.20;99.90;;;;;;5056797;28;20040;-55
2022/01/13 01:04:02;;;;;;;180.32;83.10;;;-1.20;99.90;;;;;;5056830;28;20502;-55
2022/01/13 01:06:28;;;;;;;184.50;80.63;;;-1.20;99.90;;;;;;5056713;28;20474;-55
2022/01/13 01:08:54;;;;;;;179.35;80.03;;;-1.40;99.90;;;;;;5038917;28;20171;-55
2022/01/13 01:11:20;;;;;;;183.05;82.05;;;-1.40;99.90;;;;;;5056693;28;20225;-54
2022/01/13 01:13:49;;;;;;;184.90;82.13;;;-1.40;99.90;;;;;;5056696;28;20413;-54
2022/01/13 01:16:17;;;;;;;192.75;83.28;;;-1.30;99.90;;;;;;5056510;28;20493;-54
2022/01/13 01:21:33;;;;;;;187.75;82.90;;;-1.30;99.90;;;;;;5076465;28;20032;-55
2022/01/13 01:26:46;;;;;;;192.98;82.05;;;-1.20;99.90;;;;;;5076318;28;20039;-55
2022/01/13 01:29:25;;;;;;;192.15;82.60;;;-1.20;99.90;;;;;;5076344;28;20063;-54
2022/01/13 01:31:54;;;;;;;203.13;85.70;;;-1.20;99.90;;;;;;5071111;28;20029;-54
2022/01/13 01:37:12;;;;;;;196.18;86.70;;;-1.30;99.90;;;;;;5056419;28;20348;-55
2022/01/13 01:39:38;;;;;;;191.30;89.10;;;-1.30;99.90;;;;;;5056379;28;20032;-55
2022/01/13 01:42:04;;;;;;;199.35;88.30;;;-1.30;99.90;;;;;;5055929;28;20025;-54
2022/01/13 01:44:37;;;;;;;194.35;89.13;;;-1.30;99.90;;;;;;5038224;28;20031;-54
2022/01/13 01:47:04;;;;;;;205.15;90.07;;;-1.30;99.90;;;;;;5055874;28;20075;-54
2022/01/13 01:49:38;;;;;;;194.25;87.75;;;-1.40;99.90;;;;;;5055833;28;20505;-54
2022/01/13 01:52:05;;;;;;;194.23;87.60;;;-1.40;99.90;;;;;;5055853;28;20056;-54
2022/01/13 01:54:31;;;;;;;199.23;84.82;;;-1.40;99.90;;;;;;5055779;28;20033;-54
2022/01/13 01:56:57;;;;;;;209.95;93.38;;;-1.40;99.90;;;;;;5055672;28;20623;-54
2022/01/13 01:59:28;;;;;;;228.23;101.20;;;-1.50;99.90;;;;;;5055705;28;20029;-54
2022/01/13 02:01:55;;;;;;;214.52;96.40;;;-1.50;99.90;;;;;;5055739;28;20024;-54
2022/01/13 02:04:24;;;;;;;215.88;95.50;;;-1.50;99.90;;;;;;5055770;28;20029;-55
2022/01/13 02:06:50;;;;;;;237.77;107.57;;;-1.70;99.90;;;;;;5037686;28;20048;-54
2022/01/13 02:09:18;;;;;;;260.88;114.28;;;-1.70;99.90;;;;;;5055420;28;20033;-54
2022/01/13 02:11:48;;;;;;;221.70;98.68;;;-1.80;99.90;;;;;;5055504;28;20035;-54
2022/01/13 02:16:56;;;;;;;229.85;101.40;;;-1.80;99.90;;;;;;5055400;28;20494;-54
2022/01/13 02:19:24;;;;;;;220.10;97.03;;;-1.80;99.90;;;;;;5071820;28;20040;-54
2022/01/13 02:21:50;;;;;;;223.23;98.60;;;-1.90;99.90;;;;;;5075072;28;20070;-54
2022/01/13 02:24:16;;;;;;;212.75;96.70;;;-2.00;99.90;;;;;;5075299;28;20024;-54
2022/01/13 02:26:43;;;;;;;222.05;100.45;;;-2.10;99.90;;;;;;5075246;28;20074;-54
2022/01/13 02:29:08;;;;;;;212.70;95.88;;;-2.20;99.90;;;;;;5075229;28;20048;-54
2022/01/13 02:31:34;;;;;;;217.63;98.40;;;-2.40;99.90;;;;;;5072217;28;20025;-54
2022/01/13 02:34:00;;;;;;;226.40;100.63;;;-2.40;99.90;;;;;;5055027;28;20569;-54
2022/01/13 02:36:27;;;;;;;235.52;103.85;;;-2.50;99.90;;;;;;5054942;28;20033;-54
2022/01/13 02:38:54;;;;;;;237.20;102.78;;;-2.50;99.90;;;;;;5054863;28;20028;-54
2022/01/13 02:41:24;;;;;;;235.30;100.50;;;-2.50;99.90;;;;;;5054953;28;20021;-54
2022/01/13 02:43:53;;;;;;;263.13;109.72;;;-2.60;99.90;;;;;;5054698;28;20391;-54
2022/01/13 02:49:03;;;;;;;230.10;101.03;;;-2.80;99.90;;;;;;5054781;28;20041;-54
2022/01/13 02:51:29;;;;;;;221.85;98.32;;;-2.70;99.90;;;;;;5054884;28;20032;-54
2022/01/13 02:53:55;;;;;;;226.30;97.70;;;-3.00;99.90;;;;;;5054896;28;20088;-54
2022/01/13 02:56:22;;;;;;;228.57;102.43;;;-3.00;99.90;;;;;;5054673;28;20074;-54
2022/01/13 02:58:48;;;;;;;221.15;99.43;;;-2.90;99.90;;;;;;5054814;28;20032;-54
2022/01/13 03:01:14;;;;;;;221.73;99.20;;;-2.90;99.90;;;;;;5054608;28;20033;-54
2022/01/13 03:03:41;;;;;;;222.73;98.72;;;-3.00;99.90;;;;;;5054669;28;20040;-54
2022/01/13 03:06:09;;;;;;;236.75;99.82;;;-3.00;99.90;;;;;;5054583;28;20028;-54
2022/01/13 03:08:37;;;;;;;230.52;99.90;;;-3.00;99.90;;;;;;5054464;28;20096;-54
2022/01/13 03:11:04;;;;;;;425.85;150.48;;;-3.10;99.90;;;;;;5054515;28;20024;-54
2022/01/13 03:13:30;;;;;;;560.63;199.40;;;-3.10;99.90;;;;;;5054556;28;20030;-54
2022/01/13 03:15:56;;;;;;;547.38;199.45;;;-3.10;99.90;;;;;;5054271;28;20078;-54
2022/01/13 03:18:22;;;;;;;450.92;156.43;;;-3.10;99.90;;;;;;5062641;28;20461;-55
2022/01/13 03:20:48;;;;;;;406.08;148.90;;;-3.00;99.90;;;;;;5074362;28;20035;-54
2022/01/13 03:23:19;;;;;;;479.88;170.82;;;-3.00;99.90;;;;;;5074301;28;20029;-54
2022/01/13 03:25:46;;;;;;;390.05;145.30;;;-3.10;99.90;;;;;;5074525;28;20036;-54
2022/01/13 03:28:18;;;;;;;337.10;126.85;;;-3.00;99.90;;;;;;5074239;28;20035;-54
2022/01/13 03:30:45;;;;;;;291.02;118.47;;;-3.00;99.90;;;;;;5074340;28;20470;-54
2022/01/13 03:33:13;;;;;;;374.35;140.15;;;-2.90;99.90;;;;;;5057989;28;20521;-54
2022/01/13 03:35:40;;;;;;;369.90;137.52;;;-3.00;99.90;;;;;;5054148;28;20033;-54
2022/01/13 03:38:06;;;;;;;362.75;140.05;;;-3.00;99.90;;;;;;5054254;28;20075;-54
2022/01/13 03:40:33;;;;;;;356.58;138.77;;;-3.00;99.90;;;;;;5054054;28;20025;-54
2022/01/13 03:43:01;;;;;;;337.92;133.32;;;-3.00;99.90;;;;;;5053946;28;20059;-54
2022/01/13 03:45:27;;;;;;;341.48;135.50;;;-3.00;99.90;;;;;;5054028;28;20033;-54
2022/01/13 03:47:54;;;;;;;329.88;130.38;;;-3.00;99.90;;;;;;5053981;28;20033;-54
2022/01/13 03:50:20;;;;;;;314.60;122.07;;;-3.00;99.90;;;;;;5054190;28;20103;-54
2022/01/13 03:53:01;;;;;;;270.40;113.82;;;-2.90;99.90;;;;;;5053987;28;20363;-54
2022/01/13 03:55:36;;;;;;;287.35;117.50;;;-2.90;99.90;;;;;;5053844;28;20550;-54
2022/01/13 03:58:29;;;;;;;306.33;124.18;;;-3.10;99.90;;;;;;5057811;28;20039;-54
2022/01/13 04:01:15;;;;;;;294.25;121.50;;;-3.10;99.90;;;;;;5058037;28;20028;-54
2022/01/13 04:03:41;;;;;;;318.48;125.40;;;-3.00;99.90;;;;;;5057839;28;20021;-54
2022/01/13 04:06:33;;;;;;;346.60;135.70;;;-3.00;99.90;;;;;;5058005;28;20029;-54
2022/01/13 04:08:59;;;;;;;348.63;131.50;;;-2.90;99.90;;;;;;5057677;28;20029;-54
2022/01/13 04:11:34;;;;;;;293.85;122.75;;;-3.00;99.90;;;;;;5057753;28;20029;-54
2022/01/13 04:14:02;;;;;;;360.05;141.45;;;-3.00;99.90;;;;;;5057648;28;20045;-54
2022/01/13 04:16:31;;;;;;;295.48;122.38;;;-3.00;99.90;;;;;;5057709;28;20450;-54
2022/01/13 04:19:03;;;;;;;310.08;123.93;;;-3.00;99.90;;;;;;5070541;28;20045;-54
2022/01/13 04:21:29;;;;;;;274.75;113.43;;;-3.00;99.90;;;;;;5077628;28;20056;-54
2022/01/13 04:23:57;;;;;;;272.35;115.78;;;-2.90;99.90;;;;;;5077640;28;20356;-54
2022/01/13 04:26:30;;;;;;;307.27;126.57;;;-2.90;99.90;;;;;;5077697;28;20424;-54
2022/01/13 04:31:55;;;;;;;335.13;132.15;;;-3.00;99.90;;;;;;5074500;28;20029;-54
2022/01/13 04:34:21;;;;;;;370.05;148.63;;;-3.10;99.90;;;;;;5057607;28;20379;-54
2022/01/13 04:36:48;;;;;;;366.15;150.18;;;-3.10;99.90;;;;;;5057343;28;20084;-54
2022/01/13 04:39:15;;;;;;;376.90;148.70;;;-3.20;99.90;;;;;;5057165;28;20044;-54
2022/01/13 04:41:44;;;;;;;406.35;163.20;;;-3.10;99.90;;;;;;5057156;28;20029;-54
2022/01/13 04:44:12;;;;;;;403.80;167.60;;;-3.20;99.90;;;;;;5057392;28;20021;-54
2022/01/13 04:46:39;;;;;;;416.20;171.38;;;-3.20;99.90;;;;;;5057128;28;20052;-54
2022/01/13 04:49:06;;;;;;;460.33;192.80;;;-3.10;99.90;;;;;;5057173;28;20076;-54
2022/01/13 04:51:33;;;;;;;469.98;201.48;;;-3.10;99.90;;;;;;5057212;28;20040;-54
2022/01/13 04:53:59;;;;;;;427.65;177.38;;;-3.20;99.90;;;;;;5057050;28;20021;-54
2022/01/13 04:56:44;;;;;;;398.38;162.52;;;-3.10;99.90;;;;;;5057003;28;20386;-54
2022/01/13 04:59:11;;;;;;;359.40;146.43;;;-3.10;99.90;;;;;;5056854;28;20025;-54
2022/01/13 05:01:38;;;;;;;335.92;136.75;;;-3.10;99.90;;;;;;5057059;28;20091;-54
2022/01/13 05:04:08;;;;;;;288.73;124.15;;;-3.00;99.90;;;;;;5056771;28;20116;-54
2022/01/13 05:06:34;;;;;;;309.30;127.03;;;-3.00;99.90;;;;;;5056912;28;20044;-54
2022/01/13 05:09:02;;;;;;;305.58;128.13;;;-3.00;99.90;;;;;;5055428;28;20261;-54
2022/01/13 05:11:28;;;;;;;265.20;113.65;;;-3.10;99.90;;;;;;5056727;28;20033;-54
2022/01/13 05:13:54;;;;;;;288.48;121.93;;;-3.10;99.90;;;;;;5056678;28;20031;-54
2022/01/13 05:16:29;;;;;;;295.90;126.63;;;-3.10;99.90;;;;;;5056601;28;20467;-54
2022/01/13 05:19:12;;;;;;;328.50;137.75;;;-3.20;99.90;;;;;;5069141;28;20395;-54
2022/01/13 05:21:56;;;;;;;332.20;136.85;;;-3.30;99.90;;;;;;5076425;28;20025;-54
2022/01/13 05:24:22;;;;;;;348.13;141.27;;;-3.20;99.90;;;;;;5076542;28;20032;-54
2022/01/13 05:26:48;;;;;;;340.00;139.35;;;-3.30;99.90;;;;;;5076574;28;20102;-55
2022/01/13 05:29:18;;;;;;;366.90;145.43;;;-3.30;99.90;;;;;;5076212;28;20021;-54
2022/01/13 05:31:45;;;;;;;349.52;144.88;;;-3.20;99.90;;;;;;5072131;28;20063;-54
2022/01/13 05:34:11;;;;;;;341.02;140.35;;;-3.20;99.90;;;;;;5056390;28;20032;-54
2022/01/13 05:36:37;;;;;;;336.52;139.90;;;-3.30;99.90;;;;;;5056030;28;20071;-54
2022/01/13 05:39:04;;;;;;;334.98;142.10;;;-3.30;99.90;;;;;;5055967;28;20471;-54
2022/01/13 05:41:31;;;;;;;339.02;138.77;;;-3.30;99.90;;;;;;5055986;28;20470;-54
2022/01/13 05:43:58;;;;;;;319.95;137.40;;;-3.20;99.90;;;;;;5056065;28;20064;-54
2022/01/13 05:46:24;;;;;;;322.70;137.80;;;-3.20;99.90;;;;;;5055998;28;20379;-54
2022/01/13 05:48:50;;;;;;;326.08;139.68;;;-3.20;99.90;;;;;;5056045;28;20035;-54
2022/01/13 05:51:16;;;;;;;327.08;140.10;;;-3.10;99.90;;;;;;5055957;28;20539;-54
2022/01/13 05:53:42;;;;;;;334.60;141.30;;;-3.10;99.90;;;;;;5055856;28;20025;-54
2022/01/13 05:56:09;;;;;;;358.35;145.18;;;-3.10;99.90;;;;;;5055757;28;20021;-54
2022/01/13 05:58:35;;;;;;;388.25;155.98;;;-3.10;99.90;;;;;;5055814;28;20071;-54
2022/01/13 06:01:01;;;;;;;454.75;177.45;;;-3.00;99.90;;;;;;5055748;28;20486;-54
2022/01/13 06:03:27;;;;;;;410.17;165.57;;;-3.00;99.90;;;;;;5037932;28;20028;-54
2022/01/13 06:05:53;;;;;;;483.20;198.68;;;-2.90;99.90;;;;;;5055757;28;20471;-54
2022/01/13 06:08:19;;;;;;;441.55;178.40;;;-2.90;99.90;;;;;;5055537;28;20025;-54
2022/01/13 06:10:46;;;;;;;416.05;167.05;;;-2.80;99.90;;;;;;5055426;28;20040;-54
2022/01/13 06:13:13;;;;;;;395.00;161.85;;;-2.70;99.90;;;;;;5055465;28;20028;-54
2022/01/13 06:15:39;;;;;;;353.05;141.65;;;-2.60;99.90;;;;;;5055584;28;20521;-54
2022/01/13 06:18:11;;;;;;;310.48;127.65;;;-2.70;99.90;;;;;;5057126;28;20021;-54
2022/01/13 06:20:39;;;;;;;312.48;128.98;;;-2.70;99.90;;;;;;5052674;28;20075;-54
2022/01/13 06:23:07;;;;;;;313.95;127.63;;;-2.60;99.90;;;;;;5046777;28;20109;-54
2022/01/13 06:25:34;;;;;;;341.92;136.32;;;-2.60;99.90;;;;;;5047517;28;20057;-55
2022/01/13 06:28:00;;;;;;;368.17;145.38;;;-2.70;99.90;;;;;;5048895;28;20017;-55
2022/01/13 06:30:26;;;;;;;363.60;139.77;;;-2.80;99.90;;;;;;5046195;28;20459;-55
2022/01/13 06:32:52;;;;;;;311.92;125.15;;;-2.90;99.90;;;;;;5040546;28;20052;-55
2022/01/13 06:35:18;;;;;;;428.27;154.57;;;-2.80;99.90;;;;;;5040813;28;20033;-55
2022/01/13 06:37:45;;;;;;;362.95;134.85;;;-2.80;99.90;;;;;;5048739;28;20033;-55
2022/01/13 06:40:14;;;;;;;305.67;123.28;;;-2.70;99.90;;;;;;5020931;28;20025;-56
2022/01/13 06:42:40;;;;;;;274.80;110.57;;;-2.60;99.90;;;;;;5047771;28;20017;-55
2022/01/13 06:45:08;;;;;;;275.58;114.32;;;-2.50;99.90;;;;;;5042931;28;20435;-55
2022/01/13 06:47:34;;;;;;;319.75;124.45;;;-2.40;99.90;;;;;;5024744;28;20030;-55
2022/01/13 06:50:00;;;;;;;356.00;133.27;;;-2.40;99.90;;;;;;5053310;28;20059;-55
2022/01/13 06:52:26;;;;;;;383.85;144.10;;;-2.50;99.90;;;;;;5054770;28;20029;-54
2022/01/13 06:54:52;;;;;;;352.45;133.27;;;-2.60;99.90;;;;;;5025922;28;20120;-54
2022/01/13 06:57:19;;;;;;;356.98;134.00;;;-2.70;99.90;;;;;;5046839;28;20033;-54
2022/01/13 06:59:49;;;;;;;320.10;129.18;;;-2.90;99.90;;;;;;5046454;28;20083;-56
2022/01/13 07:02:16;;;;;;;319.70;128.75;;;-2.90;99.90;;;;;;5047548;28;20029;-53
2022/01/13 07:08:18;;;;;;;369.38;147.10;;;-3.10;99.90;;;;;;5051622;28;20121;-54
2022/01/13 07:10:45;;;;;;;338.88;137.73;;;-3.10;99.90;;;;;;5052410;28;20017;-54
2022/01/13 07:13:12;;;;;;;274.80;116.22;;;-3.00;99.90;;;;;;5059420;28;20111;-54
2022/01/13 07:15:38;;;;;;;292.67;123.85;;;-2.90;99.90;;;;;;5054613;28;20071;-54
2022/01/13 07:18:04;;;;;;;277.23;122.55;;;-2.50;99.90;;;;;;5057739;28;20039;-54
2022/01/13 07:20:30;;;;;;;284.30;122.28;;;-2.10;99.90;;;;;;5054241;28;20456;-54
2022/01/13 07:22:59;;;;;;;295.90;126.63;;;-1.70;99.90;;;;;;5054314;28;20107;-54
2022/01/13 07:25:25;;;;;;;296.95;127.20;;;-1.30;99.90;;;;;;5054256;28;20025;-54
2022/01/13 07:27:51;;;;;;;288.95;125.97;;;-0.90;99.90;;;;;;5054199;28;20044;-54
2022/01/13 07:30:20;;;;;;;305.73;135.95;;;-0.20;99.90;;;;;;5052742;28;20470;-54
2022/01/13 07:32:46;;;;;;;301.23;133.82;;;0.50;99.90;;;;;;5057580;28;20025;-54
2022/01/13 07:35:12;;;;;;;280.27;123.95;;;1.10;99.90;;;;;;5047867;28;20036;-54
2022/01/13 07:37:39;;;;;;;275.58;124.80;;;1.60;99.90;;;;;;5052015;28;20477;-54
2022/01/13 07:40:07;;;;;;;287.48;127.53;;;2.00;99.90;;;;;;5049859;28;20540;-54
2022/01/13 07:42:41;;;;;;;279.92;125.07;;;2.30;99.90;;;;;;5048735;28;20056;-54
2022/01/13 07:45:08;;;;;;;264.95;119.72;;;2.40;99.90;;;;;;5046443;28;20040;-55
2022/01/13 07:47:34;;;;;;;263.88;118.75;;;2.40;99.90;;;;;;5049142;28;20031;-55
2022/01/13 07:50:00;;;;;;;280.52;128.98;;;2.10;99.90;;;;;;5049735;28;20518;-55
2022/01/13 07:52:27;;;;;;;283.70;131.90;;;2.20;99.90;;;;;;5049438;28;20025;-55
2022/01/13 07:54:53;;;;;;;283.05;131.23;;;2.50;99.90;;;;;;5051727;28;20025;-55
2022/01/13 07:57:19;;;;;;;326.23;147.95;;;2.80;99.90;;;;;;5052855;28;20470;-55
2022/01/13 07:59:48;;;;;;;369.83;171.05;;;2.30;99.90;;;;;;5047619;28;20024;-55
2022/01/13 08:02:14;;;;;;;394.27;179.10;;;2.00;99.90;;;;;;5032497;28;20032;-55
2022/01/13 08:04:40;;;;;;;398.95;183.23;;;1.70;99.90;;;;;;5057155;28;20100;-55
2022/01/13 08:07:06;;;;;;;413.40;192.20;;;2.30;99.90;;;;;;5053303;28;20029;-55
2022/01/13 08:09:32;;;;;;;393.05;183.27;;;2.70;99.90;;;;;;5052643;28;20021;-55
2022/01/13 08:11:58;;;;;;;397.38;181.75;;;3.00;99.90;;;;;;5053245;28;20420;-55
2022/01/13 08:14:24;;;;;;;385.75;174.85;;;3.00;99.90;;;;;;5046840;28;20471;-56
2022/01/13 08:16:59;;;;;;;349.35;160.07;;;3.70;99.90;;;;;;5050281;28;20031;-55
2022/01/13 08:19:48;;;;;;;317.73;149.70;;;4.20;99.90;;;;;;5053104;28;20044;-56
2022/01/13 08:22:22;;;;;;;319.90;152.30;;;4.50;99.00;;;;;;5051630;28;20048;-56
2022/01/13 08:24:48;;;;;;;321.63;150.17;;;4.20;99.00;;;;;;5053255;28;20013;-56
2022/01/13 08:27:14;;;;;;;299.83;142.00;;;4.20;99.40;;;;;;5052378;28;20359;-56
2022/01/13 08:29:40;;;;;;;300.88;140.52;;;4.70;99.70;;;;;;5053507;28;20471;-56
2022/01/13 08:32:08;;;;;;;305.10;145.07;;;4.10;98.70;;;;;;5038691;28;20038;-56
2022/01/13 08:34:34;;;;;;;309.98;147.35;;;4.00;99.70;;;;;;5057190;28;20025;-55
2022/01/13 08:37:00;;;;;;;296.00;142.18;;;4.30;99.90;;;;;;5049085;28;20061;-55
2022/01/13 08:39:30;;;;;;;295.95;141.93;;;4.70;98.80;;;;;;5042881;28;20088;-56
2022/01/13 08:41:56;;;;;;;279.98;133.43;;;5.40;97.00;;;;;;5047959;28;20025;-55
2022/01/13 08:44:22;;;;;;;251.98;119.55;;;4.90;98.10;;;;;;5071374;28;20106;-55
2022/01/13 08:46:48;;;;;;;223.32;112.35;;;4.90;98.30;;;;;;5062448;28;20021;-55
2022/01/13 08:49:14;;;;;;;217.27;106.97;;;5.40;97.10;;;;;;5073494;28;20062;-55
2022/01/13 08:51:40;;;;;;;223.00;107.80;;;4.70;98.90;;;;;;5075974;28;20366;-55
2022/01/13 08:54:06;;;;;;;205.52;98.15;;;3.80;99.90;;;;;;5068024;28;20052;-55
2022/01/13 08:56:33;;;;;;;193.27;93.85;;;3.30;99.90;;;;;;5075986;28;20331;-55
2022/01/13 08:58:59;;;;;;;190.60;88.85;;;3.40;99.90;;;;;;5067467;28;20021;-55
2022/01/13 09:01:24;;;;;;;163.43;80.28;;;2.90;99.90;;;;;;5076174;28;20527;-55
2022/01/13 09:03:50;;;;;;;198.30;96.82;;;3.30;99.90;;;;;;5076368;28;20473;-55
2022/01/13 09:06:17;;;;;;;154.75;75.63;;;3.50;99.90;;;;;;5076592;28;20085;-55
2022/01/13 09:08:43;;;;;;;172.45;87.13;;;3.50;99.90;;;;;;5071779;28;20033;-55
2022/01/13 09:11:09;;;;;;;210.85;98.68;;;3.20;99.90;;;;;;5057006;28;20028;-55
2022/01/13 09:13:38;;;;;;;161.20;80.03;;;2.40;99.90;;;;;;5055729;28;20100;-55
2022/01/13 09:16:13;;;;;;;195.90;94.55;;;2.50;99.90;;;;;;5054510;28;20036;-55
2022/01/13 09:21:41;;;;;;;174.80;87.22;;;1.80;99.90;;;;;;5000859;28;20040;-55
2022/01/13 09:24:17;;;;;;;167.57;80.45;;;1.90;99.90;;;;;;5055644;28;20549;-55
2022/01/13 09:26:45;;;;;;;167.15;80.55;;;2.10;99.90;;;;;;5052405;28;20159;-55
2022/01/13 09:29:12;;;;;;;153.27;76.93;;;2.10;99.90;;;;;;5043627;28;20443;-55
2022/01/13 09:31:41;;;;;;;150.95;73.82;;;2.10;99.90;;;;;;5024622;28;20026;-55
2022/01/13 09:34:08;;;;;;;176.35;83.65;;;3.00;99.90;;;;;;5051618;28;20029;-55
2022/01/13 09:36:35;;;;;;;184.68;88.78;;;4.20;99.90;;;;;;5074077;28;20592;-55
2022/01/13 09:39:02;;;;;;;169.95;80.25;;;3.60;99.90;;;;;;5049667;28;20032;-55
2022/01/13 09:41:30;;;;;;;177.32;76.30;;;3.40;99.90;;;;;;5056036;28;20032;-55
2022/01/13 09:44:05;;;;;;;171.82;79.95;;;3.40;99.90;;;;;;5040331;28;20115;-55
2022/01/13 09:46:35;;;;;;;175.50;78.18;;;3.30;99.90;;;;;;5076255;28;20040;-55
2022/01/13 09:49:03;;;;;;;183.40;78.63;;;3.50;99.90;;;;;;5070631;28;20139;-55
2022/01/13 09:51:31;;;;;;;154.77;67.28;;;2.70;99.90;;;;;;5051419;28;20025;-55
2022/01/13 09:54:01;;;;;;;142.15;66.50;;;2.90;99.90;;;;;;5052605;28;20029;-56
2022/01/13 09:56:27;;;;;;;131.18;58.72;;;3.10;99.90;;;;;;5066768;28;20443;-55
2022/01/13 09:58:53;;;;;;;132.15;61.38;;;3.80;99.90;;;;;;5063036;28;20434;-55
2022/01/13 10:01:20;;;;;;;118.10;54.30;;;3.70;99.90;;;;;;5068254;28;20025;-55
2022/01/13 10:03:47;;;;;;;158.40;64.28;;;3.90;99.00;;;;;;5069391;28;20024;-55
2022/01/13 10:06:18;;;;;;;122.78;56.80;;;3.90;98.40;;;;;;5038933;28;20040;-55
2022/01/13 10:08:58;;;;;;;124.85;58.20;;;3.60;98.80;;;;;;5052474;28;20029;-55
2022/01/13 10:11:40;;;;;;;118.38;57.22;;;3.70;99.00;;;;;;5052916;28;20057;-55
2022/01/13 10:14:10;;;;;;;141.75;57.65;;;3.40;99.40;;;;;;5069114;28;20043;-55
2022/01/13 10:16:44;;;;;;;121.03;55.77;;;3.40;98.60;;;;;;5070100;28;20032;-55
2022/01/13 10:19:36;;;;;;;116.47;55.05;;;3.70;99.90;;;;;;5048226;28;20045;-55
2022/01/13 10:22:14;;;;;;;118.32;55.30;;;4.10;98.30;;;;;;5036056;28;20036;-55
2022/01/13 10:24:47;;;;;;;124.72;56.78;;;3.90;97.80;;;;;;5052537;28;20074;-55
2022/01/13 10:27:19;;;;;;;122.28;57.13;;;4.30;98.30;;;;;;5074893;28;20374;-55
2022/01/13 10:29:46;;;;;;;128.20;55.30;;;4.70;98.00;;;;;;5074062;28;20025;-55
2022/01/13 10:32:21;;;;;;;157.32;56.60;;;4.90;96.70;;;;;;5074931;28;20062;-55
2022/01/13 10:35:02;;;;;;;108.35;53.17;;;5.00;95.50;;;;;;5075070;28;20078;-55
2022/01/13 10:37:33;;;;;;;132.68;60.33;;;4.00;96.90;;;;;;5074554;28;20183;-55
2022/01/13 10:40:09;;;;;;;125.00;59.30;;;4.20;98.60;;;;;;5075211;28;20373;-55
2022/01/13 10:45:22;;;;;;;107.43;51.58;;;5.00;97.60;;;;;;5074890;28;20586;-55
2022/01/13 10:48:00;;;;;;;110.15;54.65;;;5.70;95.30;;;;;;5074310;28;20036;-55
2022/01/13 10:50:33;;;;;;;114.22;53.60;;;6.80;94.70;;;;;;5074776;28;20063;-55
2022/01/13 10:53:04;;;;;;;133.73;52.08;;;7.50;91.00;;;;;;5059689;28;20037;-57
2022/01/13 10:55:34;;;;;;;106.35;47.10;;;7.70;88.70;;;;;;5048603;28;20402;-56
2022/01/13 10:58:01;;;;;;;117.03;50.63;;;8.30;84.50;;;;;;5067572;28;20028;-56
2022/01/13 11:00:34;;;;;;;75.67;34.83;;;9.10;83.50;;;;;;5043662;28;20027;-56
2022/01/13 11:03:05;;;;;;;71.93;30.00;;;9.20;62.20;;;;;;5045187;28;20275;-56
2022/01/13 11:06:11;;;;;;;58.00;28.77;;;9.40;74.40;;;;;;5054280;28;20025;-56
2022/01/13 11:08:44;;;;;;;73.18;34.97;;;9.50;56.90;;;;;;5054192;28;20025;-56
2022/01/13 11:11:26;;;;;;;73.07;35.37;;;7.80;66.80;;;;;;5067813;28;20024;-56
2022/01/13 11:14:21;;;;;;;68.43;33.63;;;7.40;76.60;;;;;;5058571;28;20091;-56
2022/01/13 11:16:47;;;;;;;69.00;35.13;;;8.60;70.70;;;;;;5053823;28;20036;-57
2022/01/13 11:19:17;;;;;;;58.17;30.63;;;7.50;71.60;;;;;;5055299;28;20075;-56
2022/01/13 11:21:44;;;;;;;71.22;37.50;;;7.20;79.20;;;;;;5064288;28;20028;-56
2022/01/13 11:24:11;;;;;;;77.68;38.58;;;8.00;71.70;;;;;;5069543;28;20028;-57
2022/01/13 11:26:37;;;;;;;59.40;30.58;;;8.60;67.30;;;;;;5051443;28;20500;-56
2022/01/13 11:29:04;;;;;;;70.30;30.60;;;8.80;57.20;;;;;;5053745;28;20041;-56
2022/01/13 11:31:30;;;;;;;63.55;33.30;;;7.80;67.80;;;;;;5052306;28;20033;-56
2022/01/13 11:33:57;;;;;;;61.28;31.48;;;8.00;68.80;;;;;;5050826;28;20037;-57
2022/01/13 11:36:27;;;;;;;75.88;36.28;;;7.00;80.80;;;;;;5048206;28;20025;-56
2022/01/13 11:39:02;;;;;;;64.55;33.38;;;7.60;76.30;;;;;;5051907;28;20112;-56
2022/01/13 11:41:28;;;;;;;84.45;39.40;;;7.10;79.00;;;;;;5051798;28;20025;-56
2022/01/13 11:44:16;;;;;;;85.10;39.30;;;6.60;77.30;;;;;;5053890;28;20024;-56
2022/01/13 11:46:50;;;;;;;82.10;37.80;;;6.40;87.00;;;;;;5051445;28;20044;-56
2022/01/13 11:49:25;;;;;;;74.95;37.55;;;6.50;90.70;;;;;;5049888;28;20395;-56
2022/01/13 11:52:02;;;;;;;80.13;35.75;;;6.90;81.90;;;;;;5047842;28;20099;-56
2022/01/13 11:54:32;;;;;;;75.00;36.42;;;6.80;85.70;;;;;;5047255;28;20352;-56
2022/01/13 11:57:22;;;;;;;58.43;32.17;;;6.50;87.70;;;;;;5053019;28;20079;-56
2022/01/13 12:00:17;;;;;;;62.00;31.95;;;6.90;88.40;;;;;;5056292;28;20020;-56
2022/01/13 12:02:44;;;;;;;86.28;37.03;;;7.10;79.60;;;;;;5052249;28;20072;-56
2022/01/13 12:05:17;;;;;;;67.40;34.20;;;6.60;79.70;;;;;;5051944;28;20075;-56
2022/01/13 12:07:45;;;;;;;69.93;34.72;;;6.50;81.20;;;;;;5051250;28;20033;-56
2022/01/13 12:10:41;;;;;;;78.38;35.70;;;6.50;81.00;;;;;;5042029;28;20057;-56
2022/01/13 12:13:31;;;;;;;59.17;30.98;;;6.80;83.30;;;;;;5051912;28;20116;-56
2022/01/13 12:15:58;;;;;;;77.97;35.72;;;7.10;81.10;;;;;;5053816;28;20035;-56
2022/01/13 12:18:46;;;;;;;76.28;36.80;;;7.20;79.10;;;;;;5065249;28;20025;-56
2022/01/13 12:21:25;;;;;;;62.78;32.78;;;7.20;87.50;;;;;;5035879;28;20048;-56
2022/01/13 12:23:56;;;;;;;58.05;30.58;;;7.80;82.30;;;;;;5037138;28;20056;-56
2022/01/13 12:26:31;;;;;;;68.25;33.05;;;8.00;66.50;;;;;;5034390;28;20038;-56
2022/01/13 12:29:19;;;;;;;90.55;41.65;;;8.30;69.30;;;;;;5036564;28;20133;-56
2022/01/13 12:31:51;;;;;;;75.75;33.20;;;8.00;67.20;;;;;;5034844;28;20038;-56
2022/01/13 12:34:48;;;;;;;63.10;33.30;;;7.70;65.80;;;;;;5037391;28;20514;-57
2022/01/13 12:37:14;;;;;;;86.28;38.75;;;7.80;68.10;;;;;;5033338;28;20104;-56
2022/01/13 12:39:46;;;;;;;69.25;33.20;;;7.70;69.20;;;;;;5026204;28;20034;-56
2022/01/13 12:42:14;;;;;;;81.45;38.38;;;7.40;76.20;;;;;;5031212;28;20017;-56
2022/01/13 12:47:26;;;;;;;64.30;31.10;;;8.20;75.40;;;;;;5020791;28;20021;-56
2022/01/13 12:49:53;;;;;;;98.72;37.67;;;7.50;72.00;;;;;;5032516;28;20108;-56
2022/01/13 12:52:21;;;;;;;72.43;35.50;;;7.30;83.70;;;;;;5032225;28;20560;-56
2022/01/13 12:54:47;;;;;;;79.82;36.75;;;7.60;80.70;;;;;;5036752;28;20033;-56
2022/01/13 12:57:15;;;;;;;68.45;32.92;;;7.20;85.60;;;;;;5035491;28;20025;-55
2022/01/13 12:59:41;;;;;;;74.30;34.35;;;7.80;80.80;;;;;;5033648;28;20025;-55
2022/01/13 13:02:09;;;;;;;72.70;32.33;;;8.40;71.80;;;;;;5033243;28;20029;-55